createdAt,value
2018-05-09T00:00:44.373Z,16.92
2018-05-09T00:01:44.368Z,16.87
2018-05-09T00:02:44.368Z,17.02
2018-05-09T00:03:44.359Z,16.99
2018-05-09T00:04:44.351Z,16.88
2018-05-09T00:05:44.347Z,16.84
2018-05-09T00:06:44.335Z,16.87
2018-05-09T00:07:44.331Z,16.77
2018-05-09T00:08:44.326Z,16.70
2018-05-09T00:09:44.325Z,16.66
2018-05-09T00:10:44.311Z,16.75
2018-05-09T00:11:44.309Z,16.78
2018-05-09T00:12:44.304Z,16.77
2018-05-09T00:13:44.295Z,16.65
2018-05-09T00:14:44.288Z,16.70
2018-05-09T00:15:44.284Z,16.60
2018-05-09T00:16:44.278Z,16.59
2018-05-09T00:17:44.270Z,16.54
2018-05-09T00:18:44.263Z,16.57
2018-05-09T00:19:44.259Z,16.50
2018-05-09T00:20:44.253Z,16.48
2018-05-09T00:21:44.245Z,16.50
2018-05-09T00:22:44.239Z,16.52
2018-05-09T00:23:44.231Z,16.48
2018-05-09T00:24:44.226Z,16.50
2018-05-09T00:25:44.218Z,16.44
2018-05-09T00:26:44.212Z,16.44
2018-05-09T00:27:44.209Z,16.44
2018-05-09T00:28:44.201Z,16.37
2018-05-09T00:29:44.202Z,16.42
2018-05-09T00:30:44.187Z,16.41
2018-05-09T00:31:44.180Z,16.40
2018-05-09T00:32:44.184Z,16.34
2018-05-09T00:33:44.174Z,16.22
2018-05-09T00:34:44.165Z,16.26
2018-05-09T00:35:44.154Z,16.26
2018-05-09T00:36:44.165Z,16.22
2018-05-09T00:37:44.142Z,16.18
2018-05-09T00:38:44.142Z,16.23
2018-05-09T00:39:44.128Z,16.08
2018-05-09T00:40:44.123Z,16.26
2018-05-09T00:41:44.180Z,16.22
2018-05-09T00:42:44.110Z,16.14
2018-05-09T00:43:44.107Z,16.13
2018-05-09T00:44:44.099Z,16.13
2018-05-09T00:45:44.095Z,16.16
2018-05-09T00:46:44.093Z,15.99
2018-05-09T00:47:44.080Z,15.95
2018-05-09T00:48:44.073Z,16.01
2018-05-09T00:49:44.069Z,15.92
2018-05-09T00:50:44.064Z,15.89
2018-05-09T00:51:44.055Z,15.92
2018-05-09T00:52:44.048Z,15.92
2018-05-09T00:53:44.037Z,15.93
2018-05-09T00:54:44.033Z,15.92
2018-05-09T00:55:44.026Z,15.93
2018-05-09T00:56:44.024Z,16.01
2018-05-09T00:57:44.014Z,16.04
2018-05-09T00:58:44.012Z,15.99
2018-05-09T00:59:44.004Z,15.96
2018-05-09T01:00:44.004Z,15.91
2018-05-09T01:01:43.987Z,15.99
2018-05-09T01:02:43.979Z,15.91
2018-05-09T01:03:43.975Z,15.93
2018-05-09T01:04:43.971Z,15.85
2018-05-09T01:05:43.958Z,15.93
2018-05-09T01:06:43.956Z,15.86
2018-05-09T01:07:43.953Z,15.91
2018-05-09T01:08:43.945Z,15.88
2018-05-09T01:09:43.934Z,15.86
2018-05-09T01:10:43.926Z,15.89
2018-05-09T01:11:43.921Z,15.85
2018-05-09T01:12:43.915Z,15.86
2018-05-09T01:13:43.906Z,15.78
2018-05-09T01:14:43.898Z,15.77
2018-05-09T01:15:43.893Z,15.73
2018-05-09T01:16:43.883Z,15.74
2018-05-09T01:17:43.878Z,15.84
2018-05-09T01:18:43.910Z,15.74
2018-05-09T01:19:43.862Z,15.74
2018-05-09T01:20:43.861Z,15.71
2018-05-09T01:21:43.853Z,15.74
2018-05-09T01:22:43.840Z,15.68
2018-05-09T01:23:43.834Z,15.67
2018-05-09T01:24:43.829Z,15.60
2018-05-09T01:25:43.824Z,15.67
2018-05-09T01:26:43.819Z,15.62
2018-05-09T01:27:43.810Z,15.59
2018-05-09T01:28:43.797Z,15.58
2018-05-09T01:29:43.789Z,15.62
2018-05-09T01:30:43.784Z,15.64
2018-05-09T01:31:43.777Z,15.64
2018-05-09T01:32:43.767Z,15.52
2018-05-09T01:33:43.762Z,15.55
2018-05-09T01:34:43.753Z,15.60
2018-05-09T01:35:43.746Z,15.56
2018-05-09T01:36:43.738Z,15.62
2018-05-09T01:37:43.730Z,15.62
2018-05-09T01:38:43.725Z,15.58
2018-05-09T01:39:43.717Z,15.55
2018-05-09T01:40:43.707Z,15.55
2018-05-09T01:41:43.704Z,15.60
2018-05-09T01:42:43.696Z,15.48
2018-05-09T01:43:43.689Z,15.46
2018-05-09T01:44:43.680Z,15.37
2018-05-09T01:45:43.674Z,15.37
2018-05-09T01:46:43.666Z,15.34
2018-05-09T01:47:43.658Z,15.28
2018-05-09T01:48:43.649Z,15.31
2018-05-09T01:49:43.642Z,15.33
2018-05-09T01:50:43.634Z,15.34
2018-05-09T01:51:43.628Z,15.27
2018-05-09T01:52:43.619Z,15.25
2018-05-09T01:53:43.614Z,15.28
2018-05-09T01:54:43.605Z,15.15
2018-05-09T01:55:43.596Z,15.15
2018-05-09T01:56:43.592Z,15.19
2018-05-09T01:57:43.583Z,15.18
2018-05-09T01:58:43.576Z,15.13
2018-05-09T01:59:43.566Z,15.05
2018-05-09T02:00:43.560Z,15.00
2018-05-09T02:01:43.559Z,15.03
2018-05-09T02:02:43.543Z,15.04
2018-05-09T02:03:43.539Z,14.93
2018-05-09T02:04:43.528Z,14.91
2018-05-09T02:05:43.523Z,14.97
2018-05-09T02:06:43.512Z,14.91
2018-05-09T02:07:43.508Z,14.94
2018-05-09T02:08:43.499Z,14.94
2018-05-09T02:09:43.490Z,14.82
2018-05-09T02:10:43.490Z,15.01
2018-05-09T02:11:43.474Z,14.90
2018-05-09T02:12:43.468Z,14.87
2018-05-09T02:13:43.459Z,14.94
2018-05-09T02:14:43.451Z,14.78
2018-05-09T02:15:43.444Z,14.79
2018-05-09T02:16:43.438Z,14.94
2018-05-09T02:17:43.471Z,14.82
2018-05-09T02:18:43.421Z,14.94
2018-05-09T02:19:43.414Z,15.05
2018-05-09T02:20:43.408Z,15.04
2018-05-09T02:21:43.399Z,15.03
2018-05-09T02:22:43.391Z,14.90
2018-05-09T02:23:43.385Z,14.95
2018-05-09T02:24:43.374Z,14.79
2018-05-09T02:25:43.370Z,14.95
2018-05-09T02:26:43.360Z,14.93
2018-05-09T02:27:43.356Z,14.94
2018-05-09T02:28:43.348Z,14.94
2018-05-09T02:29:43.336Z,14.91
2018-05-09T02:30:43.337Z,14.94
2018-05-09T02:31:43.320Z,15.00
2018-05-09T02:32:43.314Z,14.97
2018-05-09T02:33:43.307Z,14.93
2018-05-09T02:34:43.302Z,15.05
2018-05-09T02:35:43.293Z,14.93
2018-05-09T02:36:43.285Z,14.80
2018-05-09T02:37:43.277Z,14.83
2018-05-09T02:38:43.274Z,14.74
2018-05-09T02:39:43.267Z,14.75
2018-05-09T02:40:43.255Z,14.80
2018-05-09T02:41:43.253Z,14.75
2018-05-09T02:42:43.237Z,14.83
2018-05-09T02:43:43.330Z,14.78
2018-05-09T02:44:43.224Z,14.79
2018-05-09T02:45:43.214Z,14.80
2018-05-09T02:46:43.204Z,14.78
2018-05-09T02:47:43.196Z,14.80
2018-05-09T02:48:43.195Z,14.74
2018-05-09T02:49:43.186Z,14.64
2018-05-09T02:50:43.174Z,14.63
2018-05-09T02:51:43.167Z,14.64
2018-05-09T02:52:43.163Z,14.57
2018-05-09T02:53:43.151Z,14.53
2018-05-09T02:54:43.143Z,14.56
2018-05-09T02:55:43.135Z,14.56
2018-05-09T02:56:43.127Z,14.56
2018-05-09T02:57:43.119Z,14.48
2018-05-09T02:58:43.115Z,14.49
2018-05-09T02:59:43.100Z,14.42
2018-05-09T03:00:43.095Z,14.39
2018-05-09T03:01:43.089Z,14.41
2018-05-09T03:02:43.080Z,14.38
2018-05-09T03:03:43.068Z,14.45
2018-05-09T03:04:43.061Z,14.30
2018-05-09T03:05:43.061Z,14.30
2018-05-09T03:06:43.046Z,14.36
2018-05-09T03:07:43.034Z,14.20
2018-05-09T03:08:43.030Z,14.24
2018-05-09T03:09:43.018Z,14.16
2018-05-09T03:10:43.011Z,14.16
2018-05-09T03:11:43.004Z,14.26
2018-05-09T03:12:42.994Z,14.13
2018-05-09T03:13:42.985Z,14.17
2018-05-09T03:14:42.977Z,14.17
2018-05-09T03:15:42.972Z,14.19
2018-05-09T03:16:42.961Z,14.13
2018-05-09T03:17:42.954Z,14.19
2018-05-09T03:18:42.945Z,14.16
2018-05-09T03:19:42.939Z,14.13
2018-05-09T03:20:42.932Z,14.17
2018-05-09T03:21:42.920Z,14.12
2018-05-09T03:22:42.913Z,14.21
2018-05-09T03:23:42.906Z,14.20
2018-05-09T03:24:42.899Z,14.21
2018-05-09T03:25:42.888Z,14.23
2018-05-09T03:26:42.876Z,14.24
2018-05-09T03:27:42.873Z,14.27
2018-05-09T03:28:42.865Z,14.36
2018-05-09T03:29:42.885Z,14.23
2018-05-09T03:30:42.844Z,14.23
2018-05-09T03:31:42.837Z,14.23
2018-05-09T03:32:42.829Z,14.24
2018-05-09T03:33:42.828Z,14.24
2018-05-09T03:34:42.814Z,14.29
2018-05-09T03:35:42.805Z,14.11
2018-05-09T03:36:42.799Z,14.27
2018-05-09T03:37:42.788Z,14.29
2018-05-09T03:38:42.780Z,14.21
2018-05-09T03:39:42.772Z,14.16
2018-05-09T03:40:42.763Z,14.11
2018-05-09T03:41:42.760Z,14.09
2018-05-09T03:42:42.751Z,14.08
2018-05-09T03:43:42.742Z,14.06
2018-05-09T03:44:42.736Z,14.05
2018-05-09T03:45:42.756Z,14.06
2018-05-09T03:46:42.712Z,14.13
2018-05-09T03:47:42.706Z,14.09
2018-05-09T03:48:42.698Z,14.19
2018-05-09T03:49:42.691Z,14.12
2018-05-09T03:50:42.685Z,14.20
2018-05-09T03:51:42.676Z,14.19
2018-05-09T03:52:42.664Z,14.11
2018-05-09T03:53:42.660Z,14.05
2018-05-09T03:54:42.649Z,13.96
2018-05-09T03:55:42.639Z,13.91
2018-05-09T03:56:42.638Z,13.93
2018-05-09T03:57:42.622Z,13.86
2018-05-09T03:58:42.618Z,13.93
2018-05-09T03:59:42.607Z,13.79
2018-05-09T04:00:42.602Z,13.76
2018-05-09T04:01:42.601Z,13.80
2018-05-09T04:02:42.585Z,13.81
2018-05-09T04:03:42.574Z,13.88
2018-05-09T04:04:42.565Z,13.98
2018-05-09T04:05:42.561Z,13.93
2018-05-09T04:06:42.548Z,14.01
2018-05-09T04:07:42.541Z,14.11
2018-05-09T04:08:42.533Z,14.19
2018-05-09T04:09:42.525Z,14.09
2018-05-09T04:10:42.516Z,14.16
2018-05-09T04:11:42.507Z,14.20
2018-05-09T04:12:42.505Z,14.17
2018-05-09T04:13:42.490Z,14.17
2018-05-09T04:14:42.530Z,14.13
2018-05-09T04:15:42.473Z,14.21
2018-05-09T04:16:42.466Z,14.06
2018-05-09T04:17:42.457Z,14.12
2018-05-09T04:18:42.448Z,14.02
2018-05-09T04:19:42.439Z,14.05
2018-05-09T04:20:42.523Z,14.02
2018-05-09T04:21:42.424Z,14.11
2018-05-09T04:22:42.417Z,14.06
2018-05-09T04:23:42.404Z,14.04
2018-05-09T04:24:42.403Z,14.17
2018-05-09T04:25:42.389Z,14.19
2018-05-09T04:26:42.381Z,14.29
2018-05-09T04:27:42.370Z,14.34
2018-05-09T04:28:42.366Z,14.26
2018-05-09T04:29:42.356Z,14.29
2018-05-09T04:30:42.350Z,14.30
2018-05-09T04:31:42.341Z,14.41
2018-05-09T04:32:42.330Z,14.36
2018-05-09T04:33:42.323Z,14.36
2018-05-09T04:34:42.312Z,14.46
2018-05-09T04:35:42.305Z,14.44
2018-05-09T04:36:42.301Z,14.48
2018-05-09T04:37:42.292Z,14.59
2018-05-09T04:38:42.283Z,15.09
2018-05-09T04:39:42.272Z,15.74
2018-05-09T04:40:42.262Z,16.23
2018-05-09T04:41:42.257Z,16.67
2018-05-09T04:42:42.339Z,17.14
2018-05-09T04:43:42.243Z,17.47
2018-05-09T04:44:42.235Z,17.74
2018-05-09T04:45:42.228Z,18.11
2018-05-09T04:46:42.223Z,18.32
2018-05-09T04:47:42.218Z,18.64
2018-05-09T04:48:42.209Z,18.90
2018-05-09T04:49:42.206Z,19.06
2018-05-09T04:50:42.200Z,19.10
2018-05-09T04:51:42.195Z,19.42
2018-05-09T04:52:42.192Z,19.52
2018-05-09T04:53:42.188Z,19.79
2018-05-09T04:54:42.182Z,19.70
2018-05-09T04:55:42.278Z,19.75
2018-05-09T04:56:42.174Z,19.52
2018-05-09T04:57:42.171Z,19.25
2018-05-09T04:58:42.169Z,18.96
2018-05-09T04:59:42.162Z,19.20
2018-05-09T05:00:42.156Z,19.43
2018-05-09T05:01:42.160Z,19.72
2018-05-09T05:02:42.153Z,19.45
2018-05-09T05:03:42.149Z,19.40
2018-05-09T05:04:42.150Z,19.64
2018-05-09T05:05:42.143Z,19.95
2018-05-09T05:06:42.140Z,20.02
2018-05-09T05:07:42.136Z,20.19
2018-05-09T05:08:42.131Z,20.12
2018-05-09T05:09:42.128Z,20.12
2018-05-09T05:10:42.125Z,20.15
2018-05-09T05:11:42.120Z,19.52
2018-05-09T05:12:42.122Z,19.09
2018-05-09T05:13:42.114Z,19.05
2018-05-09T05:14:42.107Z,19.06
2018-05-09T05:15:42.126Z,19.02
2018-05-09T05:16:42.104Z,18.90
2018-05-09T05:17:42.098Z,18.32
2018-05-09T05:18:42.096Z,17.98
2018-05-09T05:19:42.089Z,17.92
2018-05-09T05:20:42.084Z,17.76
2018-05-09T05:21:42.085Z,17.77
2018-05-09T05:22:42.071Z,17.77
2018-05-09T05:23:42.067Z,17.92
2018-05-09T05:24:42.065Z,18.02
2018-05-09T05:25:42.062Z,18.04
2018-05-09T05:26:42.052Z,18.11
2018-05-09T05:27:42.050Z,18.21
2018-05-09T05:28:42.043Z,18.29
2018-05-09T05:29:42.043Z,18.46
2018-05-09T05:30:42.033Z,18.54
2018-05-09T05:31:42.027Z,18.42
2018-05-09T05:32:42.056Z,18.65
2018-05-09T05:33:42.019Z,18.64
2018-05-09T05:34:42.014Z,18.56
2018-05-09T05:35:42.007Z,18.53
2018-05-09T05:36:42.002Z,18.53
2018-05-09T05:37:41.997Z,18.42
2018-05-09T05:38:42.034Z,18.41
2018-05-09T05:39:41.989Z,18.42
2018-05-09T05:40:41.981Z,18.46
2018-05-09T05:41:41.977Z,18.49
2018-05-09T05:42:41.973Z,18.47
2018-05-09T05:43:41.967Z,18.51
2018-05-09T05:44:41.963Z,18.54
2018-05-09T05:45:41.958Z,18.64
2018-05-09T05:46:41.952Z,18.65
2018-05-09T05:47:41.951Z,18.69
2018-05-09T05:48:41.941Z,18.72
2018-05-09T05:49:41.935Z,18.79
2018-05-09T05:50:41.931Z,18.89
2018-05-09T05:51:41.932Z,18.82
2018-05-09T05:52:41.922Z,18.75
2018-05-09T05:53:41.916Z,18.35
2018-05-09T05:54:41.910Z,17.74
2018-05-09T05:55:41.905Z,17.53
2018-05-09T05:56:41.900Z,17.07
2018-05-09T05:57:41.898Z,17.10
2018-05-09T05:58:41.893Z,16.90
2018-05-09T05:59:41.885Z,17.15
2018-05-09T06:00:41.882Z,17.27
2018-05-09T06:01:41.874Z,17.57
2018-05-09T06:02:41.872Z,17.73
2018-05-09T06:03:41.862Z,17.98
2018-05-09T06:04:41.863Z,18.01
2018-05-09T06:05:41.856Z,18.13
2018-05-09T06:06:41.851Z,18.23
2018-05-09T06:07:41.842Z,18.20
2018-05-09T06:08:41.839Z,18.14
2018-05-09T06:09:41.836Z,18.26
2018-05-09T06:10:41.828Z,18.13
2018-05-09T06:11:41.825Z,18.11
2018-05-09T06:12:41.818Z,18.07
2018-05-09T06:13:41.813Z,18.34
2018-05-09T06:14:41.807Z,18.53
2018-05-09T06:15:41.804Z,18.54
2018-05-09T06:16:41.798Z,18.79
2018-05-09T06:17:41.792Z,18.87
2018-05-09T06:18:41.786Z,18.91
2018-05-09T06:19:41.783Z,18.90
2018-05-09T06:20:41.777Z,19.02
2018-05-09T06:21:41.818Z,19.05
2018-05-09T06:22:41.772Z,19.01
2018-05-09T06:23:41.768Z,19.05
2018-05-09T06:24:41.759Z,19.05
2018-05-09T06:25:41.754Z,18.99
2018-05-09T06:26:41.750Z,19.07
2018-05-09T06:27:41.769Z,19.09
2018-05-09T06:28:41.736Z,19.10
2018-05-09T06:29:41.733Z,19.10
2018-05-09T06:30:41.733Z,18.97
2018-05-09T06:31:41.731Z,18.90
2018-05-09T06:32:41.721Z,19.01
2018-05-09T06:33:41.715Z,19.09
2018-05-09T06:34:41.712Z,19.12
2018-05-09T06:35:41.713Z,19.21
2018-05-09T06:36:41.700Z,19.28
2018-05-09T06:37:41.752Z,19.38
2018-05-09T06:38:41.691Z,19.31
2018-05-09T06:39:41.691Z,19.35
2018-05-09T06:40:41.683Z,19.25
2018-05-09T06:41:41.742Z,19.52
2018-05-09T06:42:41.673Z,19.67
2018-05-09T06:43:41.763Z,19.76
2018-05-09T06:44:41.664Z,19.90
2018-05-09T06:45:41.660Z,19.87
2018-05-09T06:46:41.654Z,20.10
2018-05-09T06:47:41.652Z,20.15
2018-05-09T06:48:41.657Z,20.34
2018-05-09T06:49:41.644Z,20.31
2018-05-09T06:50:41.636Z,20.46
2018-05-09T06:51:41.635Z,20.46
2018-05-09T06:52:41.635Z,20.60
2018-05-09T06:53:41.633Z,20.37
2018-05-09T06:54:41.620Z,20.10
2018-05-09T06:55:41.617Z,19.65
2018-05-09T06:56:41.613Z,19.09
2018-05-09T06:57:41.616Z,18.59
2018-05-09T06:58:41.603Z,18.54
2018-05-09T06:59:41.600Z,18.65
2018-05-09T07:00:41.599Z,18.59
2018-05-09T07:01:41.596Z,18.46
2018-05-09T07:02:41.589Z,18.51
2018-05-09T07:03:41.587Z,18.72
2018-05-09T07:04:41.583Z,18.83
2018-05-09T07:05:41.579Z,19.05
2018-05-09T07:06:41.878Z,19.28
2018-05-09T07:07:41.567Z,19.43
2018-05-09T07:08:41.566Z,19.62
2018-05-09T07:09:41.560Z,19.79
2018-05-09T07:10:41.641Z,19.90
2018-05-09T07:11:41.550Z,20.02
2018-05-09T07:12:41.653Z,20.17
2018-05-09T07:13:41.544Z,20.33
2018-05-09T07:14:41.538Z,20.40
2018-05-09T07:15:41.533Z,20.53
2018-05-09T07:16:41.528Z,20.72
2018-05-09T07:17:41.528Z,20.85
2018-05-09T07:18:41.520Z,20.91
2018-05-09T07:19:41.520Z,20.87
2018-05-09T07:20:41.526Z,21.00
2018-05-09T07:21:41.513Z,21.03
2018-05-09T07:22:41.510Z,21.12
2018-05-09T07:23:41.503Z,21.28
2018-05-09T07:24:41.503Z,21.43
2018-05-09T07:25:41.496Z,21.45
2018-05-09T07:26:41.494Z,21.46
2018-05-09T07:27:41.490Z,21.56
2018-05-09T07:28:41.485Z,21.51
2018-05-09T07:29:41.484Z,21.61
2018-05-09T07:30:41.485Z,21.56
2018-05-09T07:31:41.475Z,21.59
2018-05-09T07:32:41.474Z,21.61
2018-05-09T07:33:41.469Z,21.52
2018-05-09T07:34:41.474Z,21.43
2018-05-09T07:35:41.471Z,21.38
2018-05-09T07:36:41.462Z,21.28
2018-05-09T07:37:41.461Z,21.33
2018-05-09T07:38:41.456Z,21.28
2018-05-09T07:39:41.453Z,21.21
2018-05-09T07:40:41.454Z,21.28
2018-05-09T07:41:41.446Z,21.22
2018-05-09T07:42:41.444Z,21.24
2018-05-09T07:43:41.439Z,21.18
2018-05-09T07:44:41.438Z,21.31
2018-05-09T07:45:41.439Z,21.21
2018-05-09T07:46:41.439Z,21.34
2018-05-09T07:47:41.578Z,21.37
2018-05-09T07:48:41.424Z,21.36
2018-05-09T07:49:41.421Z,21.21
2018-05-09T07:50:41.418Z,21.12
2018-05-09T07:51:41.414Z,20.88
2018-05-09T07:52:41.413Z,20.91
2018-05-09T07:53:41.409Z,20.98
2018-05-09T07:54:41.404Z,21.16
2018-05-09T07:55:41.405Z,21.21
2018-05-09T07:56:41.401Z,21.42
2018-05-09T07:57:41.403Z,21.55
2018-05-09T07:58:41.392Z,21.77
2018-05-09T07:59:41.392Z,21.91
2018-05-09T08:00:41.389Z,21.93
2018-05-09T08:01:41.391Z,22.05
2018-05-09T08:02:41.432Z,22.15
2018-05-09T08:03:41.388Z,22.24
2018-05-09T08:04:41.378Z,22.27
2018-05-09T08:05:41.379Z,22.33
2018-05-09T08:06:41.379Z,22.31
2018-05-09T08:07:41.374Z,22.38
2018-05-09T08:08:41.365Z,22.48
2018-05-09T08:09:41.363Z,22.21
2018-05-09T08:10:41.360Z,22.01
2018-05-09T08:11:41.361Z,21.75
2018-05-09T08:12:41.364Z,21.59
2018-05-09T08:13:41.352Z,21.51
2018-05-09T08:14:41.357Z,21.51
2018-05-09T08:15:41.345Z,21.63
2018-05-09T08:16:41.340Z,21.75
2018-05-09T08:17:41.341Z,21.93
2018-05-09T08:18:41.338Z,21.93
2018-05-09T08:19:41.337Z,22.06
2018-05-09T08:20:41.333Z,22.24
2018-05-09T08:21:41.332Z,22.31
2018-05-09T08:22:41.329Z,22.33
2018-05-09T08:23:41.347Z,22.51
2018-05-09T08:24:41.341Z,22.52
2018-05-09T08:25:41.324Z,22.56
2018-05-09T08:26:41.321Z,22.66
2018-05-09T08:27:41.316Z,22.79
2018-05-09T08:28:41.313Z,22.88
2018-05-09T08:29:41.312Z,23.00
2018-05-09T08:30:41.312Z,23.12
2018-05-09T08:31:41.316Z,23.23
2018-05-09T08:32:41.305Z,23.29
2018-05-09T08:33:41.305Z,23.23
2018-05-09T08:34:41.307Z,23.37
2018-05-09T08:35:41.299Z,23.45
2018-05-09T08:36:41.377Z,23.57
2018-05-09T08:37:41.299Z,23.59
2018-05-09T08:38:41.289Z,23.72
2018-05-09T08:39:41.294Z,23.84
2018-05-09T08:40:41.291Z,23.86
2018-05-09T08:41:41.289Z,23.99
2018-05-09T08:42:41.287Z,23.72
2018-05-09T08:43:41.342Z,23.50
2018-05-09T08:44:41.285Z,23.56
2018-05-09T08:45:41.281Z,23.64
2018-05-09T08:46:41.281Z,23.87
2018-05-09T08:47:41.273Z,23.89
2018-05-09T08:48:41.274Z,23.89
2018-05-09T08:49:41.274Z,23.87
2018-05-09T08:50:41.272Z,23.74
2018-05-09T08:51:41.278Z,23.86
2018-05-09T08:52:41.270Z,24.04
2018-05-09T08:53:41.268Z,24.08
2018-05-09T08:54:41.263Z,24.15
2018-05-09T08:55:41.267Z,24.34
2018-05-09T08:56:41.273Z,24.26
2018-05-09T08:57:41.264Z,24.19
2018-05-09T08:58:41.259Z,24.19
2018-05-09T08:59:41.258Z,24.14
2018-05-09T09:00:41.271Z,24.27
2018-05-09T09:01:41.259Z,24.24
2018-05-09T09:02:41.258Z,24.19
2018-05-09T09:03:41.251Z,24.23
2018-05-09T09:04:41.252Z,24.09
2018-05-09T09:05:41.251Z,24.14
2018-05-09T09:06:41.253Z,24.27
2018-05-09T09:07:41.255Z,24.36
2018-05-09T09:08:41.244Z,24.45
2018-05-09T09:09:41.245Z,24.52
2018-05-09T09:10:41.244Z,24.71
2018-05-09T09:11:41.242Z,24.90
2018-05-09T09:12:41.241Z,24.93
2018-05-09T09:13:41.240Z,25.02
2018-05-09T09:14:41.239Z,24.77
2018-05-09T09:15:41.317Z,24.42
2018-05-09T09:16:41.310Z,24.33
2018-05-09T09:17:41.235Z,24.30
2018-05-09T09:18:41.260Z,24.36
2018-05-09T09:19:41.234Z,24.41
2018-05-09T09:20:41.231Z,24.55
2018-05-09T09:21:41.232Z,24.33
2018-05-09T09:22:41.227Z,24.16
2018-05-09T09:23:41.234Z,24.14
2018-05-09T09:24:41.229Z,24.18
2018-05-09T09:25:41.229Z,24.16
2018-05-09T09:26:41.229Z,24.34
2018-05-09T09:27:41.231Z,24.37
2018-05-09T09:28:41.221Z,24.31
2018-05-09T09:29:41.233Z,24.37
2018-05-09T09:30:41.226Z,24.31
2018-05-09T09:31:41.221Z,24.39
2018-05-09T09:32:41.227Z,24.34
2018-05-09T09:33:41.220Z,24.46
2018-05-09T09:34:41.218Z,24.48
2018-05-09T09:35:41.216Z,24.46
2018-05-09T09:36:41.216Z,24.46
2018-05-09T09:37:41.218Z,24.59
2018-05-09T09:38:41.216Z,24.46
2018-05-09T09:39:41.213Z,24.41
2018-05-09T09:40:41.211Z,24.55
2018-05-09T09:41:41.211Z,24.55
2018-05-09T09:42:41.210Z,24.68
2018-05-09T09:43:41.214Z,24.84
2018-05-09T09:44:41.284Z,24.94
2018-05-09T09:45:41.208Z,24.97
2018-05-09T09:46:41.210Z,25.04
2018-05-09T09:47:41.209Z,24.90
2018-05-09T09:48:41.202Z,24.75
2018-05-09T09:49:41.205Z,24.82
2018-05-09T09:50:41.212Z,24.80
2018-05-09T09:51:41.202Z,24.90
2018-05-09T09:52:41.241Z,24.90
2018-05-09T09:53:41.200Z,24.92
2018-05-09T09:54:41.197Z,24.97
2018-05-09T09:55:41.206Z,24.94
2018-05-09T09:56:41.197Z,25.05
2018-05-09T09:57:41.203Z,25.08
2018-05-09T09:58:41.193Z,25.12
2018-05-09T09:59:41.197Z,25.26
2018-05-09T10:00:41.198Z,24.86
2018-05-09T10:01:41.226Z,24.92
2018-05-09T10:02:41.196Z,24.71
2018-05-09T10:03:41.190Z,24.56
2018-05-09T10:04:41.195Z,24.61
2018-05-09T10:05:41.190Z,24.53
2018-05-09T10:06:41.193Z,24.71
2018-05-09T10:07:41.187Z,24.71
2018-05-09T10:08:41.197Z,24.59
2018-05-09T10:09:41.191Z,24.56
2018-05-09T10:10:41.189Z,24.42
2018-05-09T10:11:41.187Z,24.46
2018-05-09T10:12:41.185Z,24.37
2018-05-09T10:13:41.191Z,24.42
2018-05-09T10:14:41.182Z,24.44
2018-05-09T10:15:41.182Z,24.33
2018-05-09T10:16:41.180Z,24.36
2018-05-09T10:17:41.182Z,24.33
2018-05-09T10:18:41.180Z,24.31
2018-05-09T10:19:41.176Z,24.31
2018-05-09T10:20:41.177Z,24.49
2018-05-09T10:21:41.173Z,24.33
2018-05-09T10:22:41.174Z,24.31
2018-05-09T10:23:41.174Z,24.16
2018-05-09T10:24:41.171Z,24.12
2018-05-09T10:25:41.172Z,24.15
2018-05-09T10:26:41.172Z,24.15
2018-05-09T10:27:41.174Z,24.19
2018-05-09T10:28:41.168Z,24.24
2018-05-09T10:29:41.167Z,24.34
2018-05-09T10:30:41.168Z,24.48
2018-05-09T10:31:41.178Z,24.56
2018-05-09T10:32:41.168Z,24.82
2018-05-09T10:33:41.161Z,24.89
2018-05-09T10:34:41.158Z,24.94
2018-05-09T10:35:41.161Z,25.01
2018-05-09T10:36:41.160Z,25.04
2018-05-09T10:37:41.161Z,24.99
2018-05-09T10:38:41.160Z,25.34
2018-05-09T10:39:41.157Z,25.26
2018-05-09T10:40:41.155Z,25.35
2018-05-09T10:41:41.157Z,25.29
2018-05-09T10:42:41.154Z,25.38
2018-05-09T10:43:41.154Z,25.53
2018-05-09T10:44:41.150Z,25.57
2018-05-09T10:45:41.151Z,25.46
2018-05-09T10:46:41.149Z,25.36
2018-05-09T10:47:41.150Z,25.26
2018-05-09T10:48:41.147Z,25.23
2018-05-09T10:49:41.150Z,25.09
2018-05-09T10:50:41.149Z,25.08
2018-05-09T10:51:41.147Z,25.24
2018-05-09T10:52:41.148Z,25.30
2018-05-09T10:53:41.145Z,25.20
2018-05-09T10:54:41.145Z,25.22
2018-05-09T10:55:41.143Z,25.17
2018-05-09T10:56:41.142Z,25.27
2018-05-09T10:57:41.142Z,25.34
2018-05-09T10:58:41.139Z,25.46
2018-05-09T10:59:41.143Z,25.54
2018-05-09T11:00:41.138Z,25.69
2018-05-09T11:01:41.138Z,25.90
2018-05-09T11:02:41.168Z,25.86
2018-05-09T11:03:41.138Z,25.97
2018-05-09T11:04:41.185Z,25.93
2018-05-09T11:05:41.139Z,26.06
2018-05-09T11:06:41.136Z,26.12
2018-05-09T11:07:41.136Z,26.29
2018-05-09T11:08:41.135Z,26.50
2018-05-09T11:09:41.141Z,26.57
2018-05-09T11:10:41.149Z,26.72
2018-05-09T11:11:41.137Z,26.81
2018-05-09T11:12:41.139Z,26.88
2018-05-09T11:13:41.136Z,26.88
2018-05-09T11:14:41.138Z,27.05
2018-05-09T11:15:41.136Z,26.93
2018-05-09T11:16:41.134Z,27.05
2018-05-09T11:17:41.232Z,26.96
2018-05-09T11:18:41.135Z,26.59
2018-05-09T11:19:41.137Z,26.57
2018-05-09T11:20:41.140Z,26.60
2018-05-09T11:21:41.139Z,26.72
2018-05-09T11:22:41.137Z,26.65
2018-05-09T11:23:41.139Z,25.97
2018-05-09T11:24:41.206Z,25.76
2018-05-09T11:25:41.141Z,25.79
2018-05-09T11:26:41.139Z,25.83
2018-05-09T11:27:41.138Z,26.00
2018-05-09T11:28:41.142Z,26.01
2018-05-09T11:29:41.146Z,26.17
2018-05-09T11:30:41.139Z,26.17
2018-05-09T11:31:41.140Z,26.19
2018-05-09T11:32:41.140Z,26.36
2018-05-09T11:33:41.143Z,26.28
2018-05-09T11:34:41.141Z,26.31
2018-05-09T11:35:41.142Z,26.31
2018-05-09T11:36:41.139Z,26.23
2018-05-09T11:37:41.139Z,26.24
2018-05-09T11:38:41.153Z,26.13
2018-05-09T11:39:41.140Z,26.08
2018-05-09T11:40:41.140Z,25.91
2018-05-09T11:41:41.141Z,25.83
2018-05-09T11:42:41.139Z,25.72
2018-05-09T11:43:41.141Z,25.74
2018-05-09T11:44:41.140Z,25.69
2018-05-09T11:45:41.140Z,25.57
2018-05-09T11:46:41.140Z,25.48
2018-05-09T11:47:41.147Z,25.45
2018-05-09T11:48:41.145Z,25.44
2018-05-09T11:49:41.143Z,25.45
2018-05-09T11:50:41.142Z,25.53
2018-05-09T11:51:41.143Z,25.56
2018-05-09T11:52:41.144Z,25.59
2018-05-09T11:53:41.145Z,25.56
2018-05-09T11:54:41.145Z,25.61
2018-05-09T11:55:41.139Z,25.69
2018-05-09T11:56:41.145Z,25.72
2018-05-09T11:57:41.139Z,25.89
2018-05-09T11:58:41.137Z,25.94
2018-05-09T11:59:41.138Z,25.91
2018-05-09T12:00:41.143Z,26.00
2018-05-09T12:01:41.138Z,25.98
2018-05-09T12:02:41.138Z,25.94
2018-05-09T12:03:41.140Z,25.72
2018-05-09T12:04:41.141Z,25.11
2018-05-09T12:05:41.144Z,25.02
2018-05-09T12:06:41.138Z,24.90
2018-05-09T12:07:41.136Z,24.70
2018-05-09T12:08:41.147Z,24.27
2018-05-09T12:09:41.137Z,24.02
2018-05-09T12:10:41.194Z,24.05
2018-05-09T12:11:41.135Z,24.09
2018-05-09T12:12:41.138Z,24.08
2018-05-09T12:13:41.134Z,24.12
2018-05-09T12:14:41.134Z,23.86
2018-05-09T12:15:41.133Z,24.16
2018-05-09T12:16:41.131Z,24.02
2018-05-09T12:17:41.131Z,24.05
2018-05-09T12:18:41.139Z,24.23
2018-05-09T12:19:41.129Z,24.31
2018-05-09T12:20:41.126Z,24.49
2018-05-09T12:21:41.127Z,24.71
2018-05-09T12:22:41.125Z,24.97
2018-05-09T12:23:41.127Z,25.14
2018-05-09T12:24:41.171Z,25.29
2018-05-09T12:25:41.124Z,25.29
2018-05-09T12:26:41.122Z,25.49
2018-05-09T12:27:41.120Z,25.34
2018-05-09T12:28:41.122Z,25.53
2018-05-09T12:29:41.118Z,25.48
2018-05-09T12:30:41.119Z,25.54
2018-05-09T12:31:41.120Z,25.49
2018-05-09T12:32:41.118Z,25.31
2018-05-09T12:33:41.122Z,25.24
2018-05-09T12:34:41.127Z,25.22
2018-05-09T12:35:41.116Z,25.02
2018-05-09T12:36:41.118Z,24.93
2018-05-09T12:37:41.115Z,24.93
2018-05-09T12:38:41.116Z,24.90
2018-05-09T12:39:41.116Z,24.97
2018-05-09T12:40:41.112Z,25.26
2018-05-09T12:41:41.108Z,25.12
2018-05-09T12:42:41.112Z,25.23
2018-05-09T12:43:41.106Z,25.34
2018-05-09T12:44:41.108Z,25.45
2018-05-09T12:45:41.109Z,25.51
2018-05-09T12:46:41.107Z,25.48
2018-05-09T12:47:41.108Z,25.45
2018-05-09T12:48:41.137Z,25.51
2018-05-09T12:49:41.103Z,25.29
2018-05-09T12:50:41.104Z,25.22
2018-05-09T12:51:41.106Z,25.38
2018-05-09T12:52:41.101Z,25.57